sensor_id;sensor_type;location;lat;lon;timestamp;P1;durP1;ratioP1;P2;durP2;ratioP2
32838;SDS011;19182;41.820;12.808;2023-05-20T00:01:28;15.02;;;4.50;;
32838;SDS011;19182;41.820;12.808;2023-05-20T00:03:55;9.60;;;4.70;;
32838;SDS011;19182;41.820;12.808;2023-05-20T00:06:22;17.13;;;4.45;;
32838;SDS011;19182;41.820;12.808;2023-05-20T00:08:50;11.30;;;4.55;;
32838;SDS011;19182;41.820;12.808;2023-05-20T00:11:16;9.10;;;4.95;;
32838;SDS011;19182;41.820;12.808;2023-05-20T00:13:42;10.30;;;4.63;;
32838;SDS011;19182;41.820;12.808;2023-05-20T00:16:09;9.30;;;4.68;;
32838;SDS011;19182;41.820;12.808;2023-05-20T00:18:36;11.68;;;5.22;;
32838;SDS011;19182;41.820;12.808;2023-05-20T00:21:02;12.43;;;4.65;;
32838;SDS011;19182;41.820;12.808;2023-05-20T00:23:28;18.92;;;4.30;;
32838;SDS011;19182;41.820;12.808;2023-05-20T00:25:54;10.98;;;4.40;;
32838;SDS011;19182;41.820;12.808;2023-05-20T00:28:20;8.93;;;4.28;;
32838;SDS011;19182;41.820;12.808;2023-05-20T00:30:47;12.38;;;4.80;;
32838;SDS011;19182;41.820;12.808;2023-05-20T00:33:13;8.48;;;4.88;;
32838;SDS011;19182;41.820;12.808;2023-05-20T00:35:40;12.93;;;4.85;;
32838;SDS011;19182;41.820;12.808;2023-05-20T00:38:06;9.15;;;5.05;;
32838;SDS011;19182;41.820;12.808;2023-05-20T00:40:31;12.40;;;4.45;;
32838;SDS011;19182;41.820;12.808;2023-05-20T00:42:58;15.05;;;4.60;;
32838;SDS011;19182;41.820;12.808;2023-05-20T00:45:24;7.25;;;5.03;;
32838;SDS011;19182;41.820;12.808;2023-05-20T00:47:51;14.48;;;5.07;;
32838;SDS011;19182;41.820;12.808;2023-05-20T00:50:17;9.75;;;4.18;;
32838;SDS011;19182;41.820;12.808;2023-05-20T00:52:43;9.93;;;4.80;;
32838;SDS011;19182;41.820;12.808;2023-05-20T00:55:12;11.75;;;4.05;;
32838;SDS011;19182;41.820;12.808;2023-05-20T00:57:39;11.77;;;4.32;;
32838;SDS011;19182;41.820;12.808;2023-05-20T01:00:06;11.75;;;4.40;;
32838;SDS011;19182;41.820;12.808;2023-05-20T01:02:34;7.30;;;4.43;;
32838;SDS011;19182;41.820;12.808;2023-05-20T01:05:00;9.52;;;4.45;;
32838;SDS011;19182;41.820;12.808;2023-05-20T01:07:25;11.05;;;4.38;;
32838;SDS011;19182;41.820;12.808;2023-05-20T01:09:52;10.10;;;4.22;;
32838;SDS011;19182;41.820;12.808;2023-05-20T01:12:21;11.57;;;5.05;;
32838;SDS011;19182;41.820;12.808;2023-05-20T01:17:40;10.13;;;4.72;;
32838;SDS011;19182;41.820;12.808;2023-05-20T01:20:14;12.88;;;4.93;;
32838;SDS011;19182;41.820;12.808;2023-05-20T01:23:00;10.90;;;4.70;;
32838;SDS011;19182;41.820;12.808;2023-05-20T01:25:28;16.00;;;5.13;;
32838;SDS011;19182;41.820;12.808;2023-05-20T01:27:54;7.15;;;4.47;;
32838;SDS011;19182;41.820;12.808;2023-05-20T01:30:23;10.27;;;4.88;;
32838;SDS011;19182;41.820;12.808;2023-05-20T01:32:54;14.23;;;5.07;;
32838;SDS011;19182;41.820;12.808;2023-05-20T01:35:29;10.02;;;4.63;;
32838;SDS011;19182;41.820;12.808;2023-05-20T01:37:56;10.13;;;4.90;;
32838;SDS011;19182;41.820;12.808;2023-05-20T01:40:22;10.57;;;4.32;;
32838;SDS011;19182;41.820;12.808;2023-05-20T01:42:49;16.02;;;5.05;;
32838;SDS011;19182;41.820;12.808;2023-05-20T01:45:19;12.07;;;4.30;;
32838;SDS011;19182;41.820;12.808;2023-05-20T01:47:44;16.17;;;5.43;;
32838;SDS011;19182;41.820;12.808;2023-05-20T01:50:10;6.60;;;5.13;;
32838;SDS011;19182;41.820;12.808;2023-05-20T01:52:37;15.35;;;5.55;;
32838;SDS011;19182;41.820;12.808;2023-05-20T01:55:03;13.68;;;5.05;;
32838;SDS011;19182;41.820;12.808;2023-05-20T01:57:29;13.38;;;5.53;;
32838;SDS011;19182;41.820;12.808;2023-05-20T01:59:55;10.93;;;5.05;;
32838;SDS011;19182;41.820;12.808;2023-05-20T02:02:21;13.32;;;6.40;;
32838;SDS011;19182;41.820;12.808;2023-05-20T02:04:49;8.60;;;5.22;;
32838;SDS011;19182;41.820;12.808;2023-05-20T02:07:16;11.43;;;5.72;;
32838;SDS011;19182;41.820;12.808;2023-05-20T02:09:43;14.88;;;5.75;;
32838;SDS011;19182;41.820;12.808;2023-05-20T02:12:09;17.13;;;5.47;;
32838;SDS011;19182;41.820;12.808;2023-05-20T02:14:43;13.70;;;5.80;;
32838;SDS011;19182;41.820;12.808;2023-05-20T02:17:11;10.07;;;6.10;;
32838;SDS011;19182;41.820;12.808;2023-05-20T02:19:40;13.13;;;6.30;;
32838;SDS011;19182;41.820;12.808;2023-05-20T02:22:07;10.05;;;5.63;;
32838;SDS011;19182;41.820;12.808;2023-05-20T02:24:33;13.00;;;6.00;;
32838;SDS011;19182;41.820;12.808;2023-05-20T02:26:59;13.75;;;5.90;;
32838;SDS011;19182;41.820;12.808;2023-05-20T02:29:25;12.73;;;5.60;;
32838;SDS011;19182;41.820;12.808;2023-05-20T02:31:51;13.00;;;6.32;;
32838;SDS011;19182;41.820;12.808;2023-05-20T02:34:17;10.63;;;6.13;;
32838;SDS011;19182;41.820;12.808;2023-05-20T02:36:43;15.35;;;5.75;;
32838;SDS011;19182;41.820;12.808;2023-05-20T02:39:08;12.30;;;5.63;;
32838;SDS011;19182;41.820;12.808;2023-05-20T02:41:34;24.17;;;5.85;;
32838;SDS011;19182;41.820;12.808;2023-05-20T02:44:00;10.85;;;5.78;;
32838;SDS011;19182;41.820;12.808;2023-05-20T02:46:27;8.65;;;5.22;;
32838;SDS011;19182;41.820;12.808;2023-05-20T02:48:53;9.80;;;5.60;;
32838;SDS011;19182;41.820;12.808;2023-05-20T02:51:20;9.13;;;5.50;;
32838;SDS011;19182;41.820;12.808;2023-05-20T02:53:46;11.85;;;5.20;;
32838;SDS011;19182;41.820;12.808;2023-05-20T02:56:12;15.00;;;5.45;;
32838;SDS011;19182;41.820;12.808;2023-05-20T02:58:39;18.70;;;5.95;;
32838;SDS011;19182;41.820;12.808;2023-05-20T03:01:05;16.42;;;5.70;;
32838;SDS011;19182;41.820;12.808;2023-05-20T03:03:31;12.70;;;5.72;;
32838;SDS011;19182;41.820;12.808;2023-05-20T03:05:57;9.18;;;5.75;;
32838;SDS011;19182;41.820;12.808;2023-05-20T03:08:24;7.38;;;4.60;;
32838;SDS011;19182;41.820;12.808;2023-05-20T03:10:50;12.23;;;5.72;;
32838;SDS011;19182;41.820;12.808;2023-05-20T03:13:17;9.27;;;5.32;;
32838;SDS011;19182;41.820;12.808;2023-05-20T03:15:44;11.35;;;5.53;;
32838;SDS011;19182;41.820;12.808;2023-05-20T03:18:10;11.18;;;5.47;;
32838;SDS011;19182;41.820;12.808;2023-05-20T03:20:37;10.02;;;5.03;;
32838;SDS011;19182;41.820;12.808;2023-05-20T03:23:04;11.15;;;5.25;;
32838;SDS011;19182;41.820;12.808;2023-05-20T03:25:30;7.65;;;5.05;;
32838;SDS011;19182;41.820;12.808;2023-05-20T03:27:56;9.02;;;5.32;;
32838;SDS011;19182;41.820;12.808;2023-05-20T03:30:23;16.25;;;5.13;;
32838;SDS011;19182;41.820;12.808;2023-05-20T03:32:50;9.95;;;5.75;;
32838;SDS011;19182;41.820;12.808;2023-05-20T03:35:17;8.15;;;4.80;;
32838;SDS011;19182;41.820;12.808;2023-05-20T03:37:44;9.82;;;4.75;;
32838;SDS011;19182;41.820;12.808;2023-05-20T03:40:10;6.65;;;4.82;;
32838;SDS011;19182;41.820;12.808;2023-05-20T03:42:38;14.57;;;4.88;;
32838;SDS011;19182;41.820;12.808;2023-05-20T03:45:04;8.77;;;4.88;;
32838;SDS011;19182;41.820;12.808;2023-05-20T03:47:33;7.35;;;4.63;;
32838;SDS011;19182;41.820;12.808;2023-05-20T03:50:00;13.85;;;4.85;;
32838;SDS011;19182;41.820;12.808;2023-05-20T03:52:25;10.93;;;4.47;;
32838;SDS011;19182;41.820;12.808;2023-05-20T03:54:52;7.85;;;5.05;;
32838;SDS011;19182;41.820;12.808;2023-05-20T03:57:18;13.80;;;5.05;;
32838;SDS011;19182;41.820;12.808;2023-05-20T03:59:45;9.50;;;4.90;;
32838;SDS011;19182;41.820;12.808;2023-05-20T04:02:11;11.73;;;5.10;;
32838;SDS011;19182;41.820;12.808;2023-05-20T04:04:38;11.85;;;4.90;;
32838;SDS011;19182;41.820;12.808;2023-05-20T04:07:07;12.30;;;5.15;;
32838;SDS011;19182;41.820;12.808;2023-05-20T04:09:33;9.00;;;5.07;;
32838;SDS011;19182;41.820;12.808;2023-05-20T04:11:59;12.05;;;4.85;;
32838;SDS011;19182;41.820;12.808;2023-05-20T04:14:25;7.03;;;4.72;;
32838;SDS011;19182;41.820;12.808;2023-05-20T04:16:51;14.05;;;5.50;;
32838;SDS011;19182;41.820;12.808;2023-05-20T04:19:17;12.45;;;4.60;;
32838;SDS011;19182;41.820;12.808;2023-05-20T04:21:45;13.18;;;4.88;;
32838;SDS011;19182;41.820;12.808;2023-05-20T04:24:12;12.15;;;5.30;;
32838;SDS011;19182;41.820;12.808;2023-05-20T04:26:38;11.00;;;4.70;;
32838;SDS011;19182;41.820;12.808;2023-05-20T04:29:04;14.90;;;5.07;;
32838;SDS011;19182;41.820;12.808;2023-05-20T04:31:30;9.07;;;4.70;;
32838;SDS011;19182;41.820;12.808;2023-05-20T04:33:56;7.25;;;4.70;;
32838;SDS011;19182;41.820;12.808;2023-05-20T04:36:22;7.65;;;5.45;;
32838;SDS011;19182;41.820;12.808;2023-05-20T04:38:53;9.02;;;4.93;;
32838;SDS011;19182;41.820;12.808;2023-05-20T04:41:21;14.55;;;5.35;;
32838;SDS011;19182;41.820;12.808;2023-05-20T04:43:48;8.70;;;5.50;;
32838;SDS011;19182;41.820;12.808;2023-05-20T04:46:14;9.45;;;4.82;;
32838;SDS011;19182;41.820;12.808;2023-05-20T04:48:40;8.02;;;4.20;;
32838;SDS011;19182;41.820;12.808;2023-05-20T04:51:08;9.88;;;4.82;;
32838;SDS011;19182;41.820;12.808;2023-05-20T04:53:35;10.20;;;4.60;;
32838;SDS011;19182;41.820;12.808;2023-05-20T04:56:02;9.18;;;3.85;;
32838;SDS011;19182;41.820;12.808;2023-05-20T04:58:29;15.18;;;4.82;;
32838;SDS011;19182;41.820;12.808;2023-05-20T05:00:55;9.07;;;4.25;;
32838;SDS011;19182;41.820;12.808;2023-05-20T05:03:22;12.02;;;3.95;;
32838;SDS011;19182;41.820;12.808;2023-05-20T05:05:49;10.70;;;4.20;;
32838;SDS011;19182;41.820;12.808;2023-05-20T05:08:19;10.05;;;4.50;;
32838;SDS011;19182;41.820;12.808;2023-05-20T05:10:45;16.92;;;5.78;;
32838;SDS011;19182;41.820;12.808;2023-05-20T05:13:12;11.13;;;4.78;;
32838;SDS011;19182;41.820;12.808;2023-05-20T05:15:39;8.60;;;4.53;;
32838;SDS011;19182;41.820;12.808;2023-05-20T05:18:05;6.80;;;3.97;;
32838;SDS011;19182;41.820;12.808;2023-05-20T05:20:32;9.77;;;4.07;;
32838;SDS011;19182;41.820;12.808;2023-05-20T05:22:59;10.90;;;4.25;;
32838;SDS011;19182;41.820;12.808;2023-05-20T05:25:25;8.30;;;4.10;;
32838;SDS011;19182;41.820;12.808;2023-05-20T05:27:51;9.13;;;4.47;;
32838;SDS011;19182;41.820;12.808;2023-05-20T05:30:17;7.80;;;4.45;;
32838;SDS011;19182;41.820;12.808;2023-05-20T05:32:45;7.47;;;3.73;;
32838;SDS011;19182;41.820;12.808;2023-05-20T05:35:11;13.05;;;4.88;;
32838;SDS011;19182;41.820;12.808;2023-05-20T05:37:37;7.88;;;3.58;;
32838;SDS011;19182;41.820;12.808;2023-05-20T05:40:03;10.77;;;3.75;;
32838;SDS011;19182;41.820;12.808;2023-05-20T05:42:32;8.10;;;3.47;;
32838;SDS011;19182;41.820;12.808;2023-05-20T05:44:57;10.88;;;3.45;;
32838;SDS011;19182;41.820;12.808;2023-05-20T05:47:24;10.98;;;3.92;;
32838;SDS011;19182;41.820;12.808;2023-05-20T05:49:56;6.82;;;3.38;;
32838;SDS011;19182;41.820;12.808;2023-05-20T05:52:25;7.85;;;3.92;;
32838;SDS011;19182;41.820;12.808;2023-05-20T05:54:51;12.02;;;4.07;;
32838;SDS011;19182;41.820;12.808;2023-05-20T05:57:19;8.63;;;4.18;;
32838;SDS011;19182;41.820;12.808;2023-05-20T05:59:46;9.90;;;3.70;;
32838;SDS011;19182;41.820;12.808;2023-05-20T06:02:11;9.00;;;3.95;;
32838;SDS011;19182;41.820;12.808;2023-05-20T06:04:38;11.80;;;3.80;;
32838;SDS011;19182;41.820;12.808;2023-05-20T06:07:04;7.60;;;3.53;;
32838;SDS011;19182;41.820;12.808;2023-05-20T06:09:29;7.38;;;3.30;;
32838;SDS011;19182;41.820;12.808;2023-05-20T06:11:55;10.75;;;3.85;;
32838;SDS011;19182;41.820;12.808;2023-05-20T06:14:22;8.23;;;3.40;;
32838;SDS011;19182;41.820;12.808;2023-05-20T06:16:49;10.82;;;4.65;;
32838;SDS011;19182;41.820;12.808;2023-05-20T06:19:15;13.32;;;3.80;;
32838;SDS011;19182;41.820;12.808;2023-05-20T06:21:41;13.27;;;3.95;;
32838;SDS011;19182;41.820;12.808;2023-05-20T06:24:08;17.02;;;3.92;;
32838;SDS011;19182;41.820;12.808;2023-05-20T06:26:35;11.63;;;3.80;;
32838;SDS011;19182;41.820;12.808;2023-05-20T06:29:01;6.68;;;3.38;;
32838;SDS011;19182;41.820;12.808;2023-05-20T06:31:27;11.45;;;3.35;;
32838;SDS011;19182;41.820;12.808;2023-05-20T06:33:54;11.07;;;3.22;;
32838;SDS011;19182;41.820;12.808;2023-05-20T06:36:20;7.30;;;3.10;;
32838;SDS011;19182;41.820;12.808;2023-05-20T06:38:46;14.85;;;3.72;;
32838;SDS011;19182;41.820;12.808;2023-05-20T06:41:11;9.90;;;3.53;;
32838;SDS011;19182;41.820;12.808;2023-05-20T06:43:38;7.95;;;3.10;;
32838;SDS011;19182;41.820;12.808;2023-05-20T06:46:06;5.18;;;3.05;;
32838;SDS011;19182;41.820;12.808;2023-05-20T06:48:31;10.45;;;3.72;;
32838;SDS011;19182;41.820;12.808;2023-05-20T06:50:57;16.73;;;5.43;;
32838;SDS011;19182;41.820;12.808;2023-05-20T06:53:24;10.38;;;3.50;;
32838;SDS011;19182;41.820;12.808;2023-05-20T06:55:54;12.00;;;3.40;;
32838;SDS011;19182;41.820;12.808;2023-05-20T06:58:20;7.38;;;3.15;;
32838;SDS011;19182;41.820;12.808;2023-05-20T07:00:47;12.82;;;3.35;;
32838;SDS011;19182;41.820;12.808;2023-05-20T07:03:12;6.75;;;3.25;;
32838;SDS011;19182;41.820;12.808;2023-05-20T07:05:38;10.20;;;3.58;;
32838;SDS011;19182;41.820;12.808;2023-05-20T07:08:04;7.53;;;3.47;;
32838;SDS011;19182;41.820;12.808;2023-05-20T07:10:31;8.45;;;2.72;;
32838;SDS011;19182;41.820;12.808;2023-05-20T07:12:58;8.95;;;3.17;;
32838;SDS011;19182;41.820;12.808;2023-05-20T07:15:24;8.55;;;3.83;;
32838;SDS011;19182;41.820;12.808;2023-05-20T07:17:49;11.75;;;4.78;;
32838;SDS011;19182;41.820;12.808;2023-05-20T07:20:16;8.07;;;3.13;;
32838;SDS011;19182;41.820;12.808;2023-05-20T07:22:45;10.77;;;3.17;;
32838;SDS011;19182;41.820;12.808;2023-05-20T07:25:12;13.90;;;3.40;;
32838;SDS011;19182;41.820;12.808;2023-05-20T07:27:38;15.45;;;3.58;;
32838;SDS011;19182;41.820;12.808;2023-05-20T07:30:04;9.35;;;3.80;;
32838;SDS011;19182;41.820;12.808;2023-05-20T07:32:30;11.63;;;4.13;;
32838;SDS011;19182;41.820;12.808;2023-05-20T07:34:56;12.32;;;3.70;;
32838;SDS011;19182;41.820;12.808;2023-05-20T07:37:22;9.48;;;3.95;;
32838;SDS011;19182;41.820;12.808;2023-05-20T07:39:47;8.82;;;3.47;;
32838;SDS011;19182;41.820;12.808;2023-05-20T07:42:13;11.18;;;3.60;;
32838;SDS011;19182;41.820;12.808;2023-05-20T07:44:39;7.43;;;3.20;;
32838;SDS011;19182;41.820;12.808;2023-05-20T07:47:05;9.05;;;3.08;;
32838;SDS011;19182;41.820;12.808;2023-05-20T07:49:30;9.75;;;3.65;;
32838;SDS011;19182;41.820;12.808;2023-05-20T07:51:57;10.38;;;3.70;;
32838;SDS011;19182;41.820;12.808;2023-05-20T07:54:23;8.93;;;3.10;;
32838;SDS011;19182;41.820;12.808;2023-05-20T07:56:50;12.02;;;3.33;;
32838;SDS011;19182;41.820;12.808;2023-05-20T07:59:16;9.07;;;3.03;;
32838;SDS011;19182;41.820;12.808;2023-05-20T08:01:42;8.77;;;3.08;;
32838;SDS011;19182;41.820;12.808;2023-05-20T08:04:08;7.88;;;3.13;;
32838;SDS011;19182;41.820;12.808;2023-05-20T08:06:34;8.15;;;3.92;;
32838;SDS011;19182;41.820;12.808;2023-05-20T08:09:00;9.90;;;3.42;;
32838;SDS011;19182;41.820;12.808;2023-05-20T08:11:26;13.98;;;3.35;;
32838;SDS011;19182;41.820;12.808;2023-05-20T08:13:52;8.63;;;3.45;;
32838;SDS011;19182;41.820;12.808;2023-05-20T08:16:20;9.10;;;3.47;;
32838;SDS011;19182;41.820;12.808;2023-05-20T08:18:45;4.70;;;3.13;;
32838;SDS011;19182;41.820;12.808;2023-05-20T08:21:12;12.02;;;3.33;;
32838;SDS011;19182;41.820;12.808;2023-05-20T08:23:39;7.55;;;3.80;;
32838;SDS011;19182;41.820;12.808;2023-05-20T08:26:05;8.65;;;3.50;;
32838;SDS011;19182;41.820;12.808;2023-05-20T08:28:32;12.77;;;3.03;;
32838;SDS011;19182;41.820;12.808;2023-05-20T08:31:00;14.02;;;3.60;;
32838;SDS011;19182;41.820;12.808;2023-05-20T08:33:26;9.82;;;3.65;;
32838;SDS011;19182;41.820;12.808;2023-05-20T08:35:53;10.25;;;3.10;;
32838;SDS011;19182;41.820;12.808;2023-05-20T08:38:20;10.15;;;2.83;;
32838;SDS011;19182;41.820;12.808;2023-05-20T08:40:54;10.85;;;3.10;;
32838;SDS011;19182;41.820;12.808;2023-05-20T08:43:21;11.52;;;3.25;;
32838;SDS011;19182;41.820;12.808;2023-05-20T08:45:48;8.32;;;3.30;;
32838;SDS011;19182;41.820;12.808;2023-05-20T08:48:16;8.18;;;2.95;;
32838;SDS011;19182;41.820;12.808;2023-05-20T08:50:48;11.25;;;2.97;;
32838;SDS011;19182;41.820;12.808;2023-05-20T08:53:15;7.82;;;2.40;;
32838;SDS011;19182;41.820;12.808;2023-05-20T08:55:45;9.93;;;2.50;;
32838;SDS011;19182;41.820;12.808;2023-05-20T08:58:18;11.30;;;3.17;;
32838;SDS011;19182;41.820;12.808;2023-05-20T09:00:44;12.88;;;2.92;;
32838;SDS011;19182;41.820;12.808;2023-05-20T09:03:09;10.48;;;3.03;;
32838;SDS011;19182;41.820;12.808;2023-05-20T09:05:38;8.45;;;2.65;;
32838;SDS011;19182;41.820;12.808;2023-05-20T09:08:07;14.93;;;3.05;;
32838;SDS011;19182;41.820;12.808;2023-05-20T09:10:34;6.22;;;2.80;;
32838;SDS011;19182;41.820;12.808;2023-05-20T09:13:02;8.10;;;2.15;;
32838;SDS011;19182;41.820;12.808;2023-05-20T09:15:29;10.43;;;3.03;;
32838;SDS011;19182;41.820;12.808;2023-05-20T09:17:58;12.13;;;2.67;;
32838;SDS011;19182;41.820;12.808;2023-05-20T09:20:28;10.13;;;3.38;;
32838;SDS011;19182;41.820;12.808;2023-05-20T09:22:59;12.90;;;3.25;;
32838;SDS011;19182;41.820;12.808;2023-05-20T09:25:26;9.88;;;2.65;;
32838;SDS011;19182;41.820;12.808;2023-05-20T09:27:52;8.85;;;2.20;;
32838;SDS011;19182;41.820;12.808;2023-05-20T09:30:20;15.02;;;3.08;;
32838;SDS011;19182;41.820;12.808;2023-05-20T09:32:55;11.65;;;3.30;;
32838;SDS011;19182;41.820;12.808;2023-05-20T09:35:24;13.40;;;3.60;;
32838;SDS011;19182;41.820;12.808;2023-05-20T09:37:56;14.70;;;3.60;;
32838;SDS011;19182;41.820;12.808;2023-05-20T09:40:23;18.02;;;3.30;;
32838;SDS011;19182;41.820;12.808;2023-05-20T09:43:04;12.35;;;3.42;;
32838;SDS011;19182;41.820;12.808;2023-05-20T09:45:32;10.82;;;3.10;;
32838;SDS011;19182;41.820;12.808;2023-05-20T09:47:58;13.88;;;2.92;;
32838;SDS011;19182;41.820;12.808;2023-05-20T09:50:25;11.30;;;3.60;;
32838;SDS011;19182;41.820;12.808;2023-05-20T09:52:54;13.95;;;3.25;;
32838;SDS011;19182;41.820;12.808;2023-05-20T09:55:24;13.38;;;3.25;;
32838;SDS011;19182;41.820;12.808;2023-05-20T09:57:50;12.20;;;2.88;;
32838;SDS011;19182;41.820;12.808;2023-05-20T10:00:18;11.25;;;3.08;;
32838;SDS011;19182;41.820;12.808;2023-05-20T10:02:47;9.85;;;2.83;;
32838;SDS011;19182;41.820;12.808;2023-05-20T10:05:16;11.25;;;3.45;;
32838;SDS011;19182;41.820;12.808;2023-05-20T10:11:09;8.20;;;3.13;;
32838;SDS011;19182;41.820;12.808;2023-05-20T10:16:53;12.10;;;3.50;;
32838;SDS011;19182;41.820;12.808;2023-05-20T10:19:38;11.50;;;3.22;;
32838;SDS011;19182;41.820;12.808;2023-05-20T10:22:08;9.70;;;3.28;;
32838;SDS011;19182;41.820;12.808;2023-05-20T10:24:45;12.38;;;3.17;;
32838;SDS011;19182;41.820;12.808;2023-05-20T10:27:11;12.63;;;3.58;;
32838;SDS011;19182;41.820;12.808;2023-05-20T10:29:41;11.00;;;3.00;;
32838;SDS011;19182;41.820;12.808;2023-05-20T10:32:29;12.15;;;2.90;;
32838;SDS011;19182;41.820;12.808;2023-05-20T10:35:07;10.93;;;2.85;;
32838;SDS011;19182;41.820;12.808;2023-05-20T10:37:47;12.55;;;2.92;;
32838;SDS011;19182;41.820;12.808;2023-05-20T10:40:14;11.45;;;2.90;;
32838;SDS011;19182;41.820;12.808;2023-05-20T10:42:42;19.38;;;3.33;;
32838;SDS011;19182;41.820;12.808;2023-05-20T10:45:09;17.52;;;3.50;;
32838;SDS011;19182;41.820;12.808;2023-05-20T10:47:35;11.82;;;3.15;;
32838;SDS011;19182;41.820;12.808;2023-05-20T10:50:05;21.27;;;4.35;;
32838;SDS011;19182;41.820;12.808;2023-05-20T10:52:32;15.05;;;3.83;;
32838;SDS011;19182;41.820;12.808;2023-05-20T10:55:02;15.25;;;3.65;;
32838;SDS011;19182;41.820;12.808;2023-05-20T10:57:29;14.57;;;3.53;;
32838;SDS011;19182;41.820;12.808;2023-05-20T10:59:56;13.18;;;3.45;;
32838;SDS011;19182;41.820;12.808;2023-05-20T11:02:21;9.30;;;3.25;;
32838;SDS011;19182;41.820;12.808;2023-05-20T11:04:55;19.23;;;3.45;;
32838;SDS011;19182;41.820;12.808;2023-05-20T11:07:28;15.15;;;3.63;;
32838;SDS011;19182;41.820;12.808;2023-05-20T11:09:56;11.50;;;3.35;;
32838;SDS011;19182;41.820;12.808;2023-05-20T11:12:23;11.35;;;3.20;;
32838;SDS011;19182;41.820;12.808;2023-05-20T11:14:50;20.58;;;3.38;;
32838;SDS011;19182;41.820;12.808;2023-05-20T11:17:17;10.27;;;3.00;;
32838;SDS011;19182;41.820;12.808;2023-05-20T11:19:44;15.18;;;3.17;;
32838;SDS011;19182;41.820;12.808;2023-05-20T11:22:11;12.00;;;3.60;;
32838;SDS011;19182;41.820;12.808;2023-05-20T11:24:42;13.68;;;3.42;;
32838;SDS011;19182;41.820;12.808;2023-05-20T11:27:08;11.30;;;3.08;;
32838;SDS011;19182;41.820;12.808;2023-05-20T11:29:37;11.85;;;3.85;;
32838;SDS011;19182;41.820;12.808;2023-05-20T11:32:04;8.00;;;2.75;;
32838;SDS011;19182;41.820;12.808;2023-05-20T11:34:35;13.27;;;2.75;;
32838;SDS011;19182;41.820;12.808;2023-05-20T11:37:05;7.50;;;2.63;;
32838;SDS011;19182;41.820;12.808;2023-05-20T11:39:34;10.07;;;3.72;;
32838;SDS011;19182;41.820;12.808;2023-05-20T11:42:00;17.23;;;3.35;;
32838;SDS011;19182;41.820;12.808;2023-05-20T11:44:27;12.70;;;2.88;;
32838;SDS011;19182;41.820;12.808;2023-05-20T11:46:58;14.48;;;2.95;;
32838;SDS011;19182;41.820;12.808;2023-05-20T11:49:25;10.23;;;2.92;;
32838;SDS011;19182;41.820;12.808;2023-05-20T11:51:51;8.68;;;3.05;;
32838;SDS011;19182;41.820;12.808;2023-05-20T11:54:17;13.75;;;2.63;;
32838;SDS011;19182;41.820;12.808;2023-05-20T11:56:47;12.57;;;2.70;;
32838;SDS011;19182;41.820;12.808;2023-05-20T11:59:14;8.90;;;2.50;;
32838;SDS011;19182;41.820;12.808;2023-05-20T12:01:40;8.80;;;3.13;;
32838;SDS011;19182;41.820;12.808;2023-05-20T12:04:07;9.23;;;2.53;;
32838;SDS011;19182;41.820;12.808;2023-05-20T12:06:34;15.45;;;2.58;;
32838;SDS011;19182;41.820;12.808;2023-05-20T12:11:34;9.50;;;2.13;;
32838;SDS011;19182;41.820;12.808;2023-05-20T12:14:06;8.38;;;2.10;;
32838;SDS011;19182;41.820;12.808;2023-05-20T12:16:33;10.65;;;3.13;;
32838;SDS011;19182;41.820;12.808;2023-05-20T12:18:59;9.85;;;2.45;;
32838;SDS011;19182;41.820;12.808;2023-05-20T12:21:25;10.27;;;3.03;;
32838;SDS011;19182;41.820;12.808;2023-05-20T12:23:55;12.45;;;2.60;;
32838;SDS011;19182;41.820;12.808;2023-05-20T12:26:23;9.43;;;2.15;;
32838;SDS011;19182;41.820;12.808;2023-05-20T12:28:49;9.50;;;2.75;;
32838;SDS011;19182;41.820;12.808;2023-05-20T12:31:15;12.70;;;2.67;;
32838;SDS011;19182;41.820;12.808;2023-05-20T12:33:41;14.18;;;2.80;;
32838;SDS011;19182;41.820;12.808;2023-05-20T12:36:07;8.15;;;2.35;;
32838;SDS011;19182;41.820;12.808;2023-05-20T12:38:33;10.27;;;2.60;;
32838;SDS011;19182;41.820;12.808;2023-05-20T12:40:59;10.15;;;3.20;;
32838;SDS011;19182;41.820;12.808;2023-05-20T12:43:26;12.32;;;5.45;;
32838;SDS011;19182;41.820;12.808;2023-05-20T12:45:52;11.15;;;2.67;;
32838;SDS011;19182;41.820;12.808;2023-05-20T12:48:18;10.63;;;2.33;;
32838;SDS011;19182;41.820;12.808;2023-05-20T12:50:44;8.07;;;2.33;;
32838;SDS011;19182;41.820;12.808;2023-05-20T12:53:12;8.18;;;2.38;;
32838;SDS011;19182;41.820;12.808;2023-05-20T12:55:38;11.63;;;2.60;;
32838;SDS011;19182;41.820;12.808;2023-05-20T12:58:05;10.65;;;2.97;;
32838;SDS011;19182;41.820;12.808;2023-05-20T13:00:33;11.65;;;2.97;;
32838;SDS011;19182;41.820;12.808;2023-05-20T13:02:59;12.52;;;2.55;;
32838;SDS011;19182;41.820;12.808;2023-05-20T13:05:25;13.32;;;2.70;;
32838;SDS011;19182;41.820;12.808;2023-05-20T13:07:52;10.57;;;2.88;;
32838;SDS011;19182;41.820;12.808;2023-05-20T13:10:18;12.80;;;2.58;;
32838;SDS011;19182;41.820;12.808;2023-05-20T13:12:44;6.30;;;2.20;;
32838;SDS011;19182;41.820;12.808;2023-05-20T13:15:13;5.05;;;2.75;;
32838;SDS011;19182;41.820;12.808;2023-05-20T13:17:48;11.63;;;2.88;;
32838;SDS011;19182;41.820;12.808;2023-05-20T13:20:14;6.80;;;2.38;;
32838;SDS011;19182;41.820;12.808;2023-05-20T13:22:42;7.13;;;2.65;;
32838;SDS011;19182;41.820;12.808;2023-05-20T13:25:07;9.15;;;2.55;;
32838;SDS011;19182;41.820;12.808;2023-05-20T13:27:34;12.25;;;2.45;;
32838;SDS011;19182;41.820;12.808;2023-05-20T13:30:02;9.45;;;2.90;;
32838;SDS011;19182;41.820;12.808;2023-05-20T13:32:30;8.77;;;2.80;;
32838;SDS011;19182;41.820;12.808;2023-05-20T13:34:56;10.98;;;2.80;;
32838;SDS011;19182;41.820;12.808;2023-05-20T13:37:24;8.65;;;2.92;;
32838;SDS011;19182;41.820;12.808;2023-05-20T13:39:53;9.90;;;2.97;;
32838;SDS011;19182;41.820;12.808;2023-05-20T13:42:19;17.98;;;3.20;;
32838;SDS011;19182;41.820;12.808;2023-05-20T13:44:46;9.45;;;3.45;;
32838;SDS011;19182;41.820;12.808;2023-05-20T13:47:12;9.13;;;2.78;;
32838;SDS011;19182;41.820;12.808;2023-05-20T13:49:39;9.32;;;2.30;;
32838;SDS011;19182;41.820;12.808;2023-05-20T13:52:05;6.70;;;2.53;;
32838;SDS011;19182;41.820;12.808;2023-05-20T13:54:31;13.18;;;3.63;;
32838;SDS011;19182;41.820;12.808;2023-05-20T13:56:57;12.07;;;2.38;;
32838;SDS011;19182;41.820;12.808;2023-05-20T13:59:23;9.60;;;2.67;;
32838;SDS011;19182;41.820;12.808;2023-05-20T14:01:52;8.38;;;3.13;;
32838;SDS011;19182;41.820;12.808;2023-05-20T14:04:18;7.93;;;2.92;;
32838;SDS011;19182;41.820;12.808;2023-05-20T14:06:45;9.25;;;3.15;;
32838;SDS011;19182;41.820;12.808;2023-05-20T14:09:11;16.35;;;3.15;;
32838;SDS011;19182;41.820;12.808;2023-05-20T14:11:37;14.05;;;3.40;;
32838;SDS011;19182;41.820;12.808;2023-05-20T14:14:03;4.85;;;2.58;;
32838;SDS011;19182;41.820;12.808;2023-05-20T14:16:29;11.35;;;3.45;;
32838;SDS011;19182;41.820;12.808;2023-05-20T14:18:56;6.55;;;2.97;;
32838;SDS011;19182;41.820;12.808;2023-05-20T14:21:22;10.43;;;3.03;;
32838;SDS011;19182;41.820;12.808;2023-05-20T14:23:48;10.90;;;3.42;;
32838;SDS011;19182;41.820;12.808;2023-05-20T14:26:15;9.43;;;3.05;;
32838;SDS011;19182;41.820;12.808;2023-05-20T14:28:41;7.72;;;3.35;;
32838;SDS011;19182;41.820;12.808;2023-05-20T14:31:08;11.65;;;4.07;;
32838;SDS011;19182;41.820;12.808;2023-05-20T14:33:34;6.40;;;2.70;;
32838;SDS011;19182;41.820;12.808;2023-05-20T14:36:00;10.90;;;3.72;;
32838;SDS011;19182;41.820;12.808;2023-05-20T14:38:29;10.27;;;3.95;;